Time;durP1;ratioP1;P1;durP2;ratioP2;P2;SDS_P1;SDS_P2;PMS_P1;PMS_P2;Temp;Humidity;BMP_temperature;BMP_pressure;BME280_temperature;BME280_humidity;BME280_pressure;Samples;Min_cycle;Max_cycle;Signal;HPM_P1;HPM_P2
2023/08/23 00:00:33;;;;;;;7.18;3.30;;;;;;;;;;4992031;28;20198;-74
2023/08/23 00:02:59;;;;;;;3.45;3.15;;;;;;;;;;4992391;28;20210;-73
2023/08/23 00:05:25;;;;;;;3.55;3.28;;;;;;;;;;4992081;28;20207;-73
2023/08/23 00:07:52;;;;;;;3.40;3.10;;;;;;;;;;4992094;28;20292;-73
2023/08/23 00:10:19;;;;;;;4.80;3.25;;;;;;;;;;4992067;28;20213;-73
2023/08/23 00:12:46;;;;;;;5.32;3.78;;;;;;;;;;4992121;28;20207;-73
2023/08/23 00:15:12;;;;;;;4.18;3.45;;;;;;;;;;4991908;28;20687;-74
2023/08/23 00:17:38;;;;;;;3.42;3.22;;;;;;;;;;4991936;28;20246;-74
2023/08/23 00:20:05;;;;;;;8.98;3.33;;;;;;;;;;4991894;28;20214;-74
2023/08/23 00:22:31;;;;;;;6.00;3.17;;;;;;;;;;4992153;28;20288;-75
2023/08/23 00:24:57;;;;;;;3.53;3.30;;;;;;;;;;4992126;28;20203;-76
2023/08/23 00:27:25;;;;;;;6.05;3.25;;;;;;;;;;4991889;28;20194;-75
2023/08/23 00:29:51;;;;;;;3.40;3.15;;;;;;;;;;4991482;28;20361;-75
2023/08/23 00:32:17;;;;;;;5.75;3.42;;;;;;;;;;4992129;28;20211;-74
2023/08/23 00:34:44;;;;;;;3.75;3.45;;;;;;;;;;4995882;28;20202;-74
2023/08/23 00:37:10;;;;;;;6.85;3.50;;;;;;;;;;4995854;28;20222;-74
2023/08/23 00:39:36;;;;;;;3.97;3.17;;;;;;;;;;4995559;28;20226;-74
2023/08/23 00:42:03;;;;;;;6.95;3.20;;;;;;;;;;4995654;28;20198;-74
2023/08/23 00:44:30;;;;;;;5.18;3.08;;;;;;;;;;4995475;28;20221;-74
2023/08/23 00:46:56;;;;;;;4.95;3.83;;;;;;;;;;4995903;28;20195;-75
2023/08/23 00:49:23;;;;;;;5.38;3.42;;;;;;;;;;4995265;28;20222;-75
2023/08/23 00:51:50;;;;;;;4.15;3.38;;;;;;;;;;4995648;28;20690;-74
2023/08/23 00:54:17;;;;;;;3.60;3.30;;;;;;;;;;4995573;28;20203;-76
2023/08/23 00:56:43;;;;;;;3.58;3.22;;;;;;;;;;4995518;28;20462;-74
2023/08/23 00:59:10;;;;;;;6.22;3.30;;;;;;;;;;4995022;28;20222;-74
2023/08/23 01:01:37;;;;;;;7.10;3.47;;;;;;;;;;4995461;28;20199;-75
2023/08/23 01:04:04;;;;;;;4.75;3.42;;;;;;;;;;4995517;28;20203;-75
2023/08/23 01:06:35;;;;;;;3.40;3.30;;;;;;;;;;4995475;28;20206;-74
2023/08/23 01:09:06;;;;;;;5.07;3.20;;;;;;;;;;4995017;28;20233;-75
2023/08/23 01:11:37;;;;;;;3.50;3.20;;;;;;;;;;4994900;28;20723;-74
2023/08/23 01:14:04;;;;;;;5.28;3.60;;;;;;;;;;4994837;28;20671;-74
2023/08/23 01:16:31;;;;;;;3.67;3.47;;;;;;;;;;4995194;28;20226;-75
2023/08/23 01:19:00;;;;;;;5.93;3.63;;;;;;;;;;4994798;28;20219;-75
2023/08/23 01:21:29;;;;;;;5.75;3.60;;;;;;;;;;4995575;28;20289;-75
2023/08/23 01:23:57;;;;;;;4.28;3.65;;;;;;;;;;4994901;28;20202;-75
2023/08/23 01:26:23;;;;;;;6.90;3.67;;;;;;;;;;4994797;28;20207;-75
2023/08/23 01:28:51;;;;;;;3.50;3.20;;;;;;;;;;4994466;28;20226;-75
2023/08/23 01:31:20;;;;;;;4.88;3.42;;;;;;;;;;4994968;28;20228;-74
2023/08/23 01:33:50;;;;;;;4.70;3.80;;;;;;;;;;4994855;28;20225;-74
2023/08/23 01:36:18;;;;;;;3.75;3.45;;;;;;;;;;4994693;28;20221;-74
2023/08/23 01:38:46;;;;;;;4.35;3.60;;;;;;;;;;4994258;28;20715;-74
2023/08/23 01:41:23;;;;;;;4.55;4.15;;;;;;;;;;4994804;28;20213;-75
2023/08/23 01:43:49;;;;;;;4.72;3.72;;;;;;;;;;4994480;28;20694;-75
2023/08/23 01:46:15;;;;;;;7.80;4.03;;;;;;;;;;4994556;28;20199;-74
2023/08/23 01:48:42;;;;;;;4.72;3.47;;;;;;;;;;4994235;28;20230;-74
2023/08/23 01:51:08;;;;;;;3.97;3.75;;;;;;;;;;4994293;28;20667;-74
2023/08/23 01:53:34;;;;;;;4.55;3.50;;;;;;;;;;4994326;28;20206;-75
2023/08/23 01:56:00;;;;;;;6.15;3.70;;;;;;;;;;4994667;28;20207;-76
2023/08/23 01:58:28;;;;;;;5.15;3.65;;;;;;;;;;4994138;28;20234;-75
2023/08/23 02:00:54;;;;;;;4.20;3.47;;;;;;;;;;4994218;28;20206;-74
2023/08/23 02:03:20;;;;;;;6.05;3.95;;;;;;;;;;4994154;28;20210;-75
2023/08/23 02:05:47;;;;;;;5.85;3.42;;;;;;;;;;4994177;28;20210;-75
2023/08/23 02:08:14;;;;;;;5.53;3.80;;;;;;;;;;4994033;28;20230;-75
2023/08/23 02:10:40;;;;;;;4.00;3.70;;;;;;;;;;4994291;28;20206;-75
2023/08/23 02:13:07;;;;;;;6.10;3.90;;;;;;;;;;4994088;28;20212;-75
2023/08/23 02:15:34;;;;;;;4.25;3.75;;;;;;;;;;4994003;28;20210;-74
2023/08/23 02:18:01;;;;;;;6.15;3.85;;;;;;;;;;4993742;28;20226;-75
2023/08/23 02:20:27;;;;;;;5.78;4.07;;;;;;;;;;4993809;28;20203;-75
2023/08/23 02:22:53;;;;;;;6.07;4.20;;;;;;;;;;4994011;28;20207;-74
2023/08/23 02:25:19;;;;;;;5.07;4.05;;;;;;;;;;4993980;28;20203;-75
2023/08/23 02:27:46;;;;;;;4.45;3.72;;;;;;;;;;4993469;28;20678;-75
2023/08/23 02:30:13;;;;;;;4.57;3.75;;;;;;;;;;4993638;28;20229;-75
2023/08/23 02:32:40;;;;;;;4.40;4.00;;;;;;;;;;4994096;28;20572;-75
2023/08/23 02:35:07;;;;;;;6.50;4.20;;;;;;;;;;4993642;28;20213;-75
2023/08/23 02:37:33;;;;;;;4.38;4.00;;;;;;;;;;4993613;28;20238;-75
2023/08/23 02:39:59;;;;;;;4.80;4.20;;;;;;;;;;4993347;28;20558;-75
2023/08/23 02:42:26;;;;;;;4.30;4.07;;;;;;;;;;4993657;28;20203;-75
2023/08/23 02:44:52;;;;;;;4.30;3.97;;;;;;;;;;4993578;28;20207;-74
2023/08/23 02:47:18;;;;;;;6.85;4.45;;;;;;;;;;4993622;28;20198;-75
2023/08/23 02:49:46;;;;;;;5.40;3.90;;;;;;;;;;4992891;28;20710;-75
2023/08/23 02:52:12;;;;;;;5.45;4.38;;;;;;;;;;4993497;28;20237;-75
2023/08/23 02:54:38;;;;;;;4.65;4.20;;;;;;;;;;4993393;28;20215;-75
2023/08/23 02:57:05;;;;;;;4.55;4.15;;;;;;;;;;4992508;28;20225;-75
2023/08/23 02:59:31;;;;;;;4.40;3.92;;;;;;;;;;4992950;28;20595;-75
2023/08/23 03:01:58;;;;;;;6.07;3.75;;;;;;;;;;4993176;28;20210;-75
2023/08/23 03:04:24;;;;;;;4.35;3.83;;;;;;;;;;4992998;28;20214;-75
2023/08/23 03:06:51;;;;;;;4.85;4.35;;;;;;;;;;4993240;28;20202;-75
2023/08/23 03:09:18;;;;;;;4.53;4.22;;;;;;;;;;4992806;28;20230;-74
2023/08/23 03:11:44;;;;;;;4.95;4.20;;;;;;;;;;4992961;28;20218;-74
2023/08/23 03:14:10;;;;;;;4.13;3.83;;;;;;;;;;4993236;28;20667;-74
2023/08/23 03:16:36;;;;;;;5.18;4.03;;;;;;;;;;4992698;28;20206;-74
2023/08/23 03:19:03;;;;;;;4.13;3.83;;;;;;;;;;4992312;28;20230;-74
2023/08/23 03:21:29;;;;;;;5.20;4.32;;;;;;;;;;4992877;28;20205;-75
2023/08/23 03:23:56;;;;;;;4.82;4.50;;;;;;;;;;4992786;28;20214;-74
2023/08/23 03:26:23;;;;;;;4.60;4.20;;;;;;;;;;4992845;28;20203;-75
2023/08/23 03:28:49;;;;;;;6.93;4.72;;;;;;;;;;4992294;28;20234;-76
2023/08/23 03:31:15;;;;;;;4.72;4.40;;;;;;;;;;4992564;28;20203;-74
2023/08/23 03:33:41;;;;;;;4.57;3.85;;;;;;;;;;4992767;28;20695;-76
2023/08/23 03:36:08;;;;;;;4.55;4.15;;;;;;;;;;4992720;28;20207;-75
2023/08/23 03:38:34;;;;;;;5.40;4.93;;;;;;;;;;4992200;28;20237;-75
2023/08/23 03:41:02;;;;;;;5.57;5.07;;;;;;;;;;4992536;28;20202;-75
2023/08/23 03:43:29;;;;;;;4.90;4.57;;;;;;;;;;4992379;28;20644;-76
2023/08/23 03:45:55;;;;;;;5.40;4.82;;;;;;;;;;4992417;28;20202;-74
2023/08/23 03:48:21;;;;;;;5.43;4.82;;;;;;;;;;4992255;28;20307;-74
2023/08/23 03:50:48;;;;;;;6.97;4.32;;;;;;;;;;4992534;28;20206;-75
2023/08/23 03:53:14;;;;;;;7.63;4.72;;;;;;;;;;4992270;28;20215;-75
2023/08/23 03:55:40;;;;;;;7.47;4.93;;;;;;;;;;4992297;28;20210;-76
2023/08/23 03:58:08;;;;;;;5.28;4.88;;;;;;;;;;4991800;28;20223;-75
2023/08/23 04:00:34;;;;;;;5.38;4.70;;;;;;;;;;4992289;28;20207;-74
2023/08/23 04:03:01;;;;;;;6.15;4.70;;;;;;;;;;4992096;28;20569;-76
2023/08/23 04:05:27;;;;;;;5.70;5.05;;;;;;;;;;4992349;28;20249;-75
2023/08/23 04:07:53;;;;;;;6.85;4.40;;;;;;;;;;4991943;28;20726;-74
2023/08/23 04:10:19;;;;;;;6.85;4.93;;;;;;;;;;4991980;28;20319;-75
2023/08/23 04:12:46;;;;;;;5.10;4.63;;;;;;;;;;4992091;28;20198;-74
2023/08/23 04:15:13;;;;;;;5.18;4.68;;;;;;;;;;4992010;28;20214;-75
2023/08/23 04:17:40;;;;;;;5.43;5.03;;;;;;;;;;4992107;28;20226;-66
2023/08/23 04:20:07;;;;;;;4.75;4.40;;;;;;;;;;4991767;28;20203;-66
2023/08/23 04:22:33;;;;;;;7.10;4.93;;;;;;;;;;4992030;28;20230;-67
2023/08/23 04:24:59;;;;;;;6.97;4.93;;;;;;;;;;4991983;28;20199;-66
2023/08/23 04:27:25;;;;;;;6.40;5.13;;;;;;;;;;4991765;28;20198;-67
2023/08/23 04:29:52;;;;;;;7.95;5.13;;;;;;;;;;4991491;28;20226;-66
2023/08/23 04:32:20;;;;;;;5.43;5.00;;;;;;;;;;4992053;28;20206;-66
2023/08/23 04:34:46;;;;;;;6.93;4.97;;;;;;;;;;4991973;28;20610;-67
2023/08/23 04:37:12;;;;;;;5.03;4.72;;;;;;;;;;4991885;28;20223;-67
2023/08/23 04:39:38;;;;;;;5.40;4.85;;;;;;;;;;4991512;28;20230;-67
2023/08/23 04:42:05;;;;;;;5.57;5.13;;;;;;;;;;4991768;28;20207;-67
2023/08/23 04:44:31;;;;;;;5.78;5.28;;;;;;;;;;4992289;28;20203;-67
2023/08/23 04:46:58;;;;;;;5.90;5.50;;;;;;;;;;4991955;28;20207;-67
2023/08/23 04:49:26;;;;;;;5.63;5.10;;;;;;;;;;4991295;28;20762;-66
2023/08/23 04:51:52;;;;;;;6.30;4.95;;;;;;;;;;4991599;28;20221;-65
2023/08/23 04:54:18;;;;;;;6.22;5.65;;;;;;;;;;4991674;28;20210;-67
2023/08/23 04:56:45;;;;;;;9.70;5.13;;;;;;;;;;4991582;28;20219;-67
2023/08/23 04:59:11;;;;;;;6.68;5.07;;;;;;;;;;4991110;28;20691;-67
2023/08/23 05:01:37;;;;;;;7.63;5.03;;;;;;;;;;4991699;28;20229;-67
2023/08/23 05:04:04;;;;;;;8.30;5.43;;;;;;;;;;4991756;28;20206;-67
2023/08/23 05:06:32;;;;;;;5.90;5.30;;;;;;;;;;4991613;28;20203;-67
2023/08/23 05:08:58;;;;;;;11.18;5.55;;;;;;;;;;4991246;28;20219;-67
2023/08/23 05:11:24;;;;;;;5.13;4.72;;;;;;;;;;4991567;28;20210;-67
2023/08/23 05:13:51;;;;;;;5.50;5.03;;;;;;;;;;4991528;28;20215;-67
2023/08/23 05:16:17;;;;;;;5.38;4.88;;;;;;;;;;4991638;28;20671;-68
2023/08/23 05:18:43;;;;;;;5.95;5.10;;;;;;;;;;4991549;28;20230;-67
2023/08/23 05:21:10;;;;;;;5.40;5.00;;;;;;;;;;4994948;28;20711;-67
2023/08/23 05:23:37;;;;;;;5.78;4.93;;;;;;;;;;4995628;28;20226;-66
2023/08/23 05:26:03;;;;;;;8.77;5.68;;;;;;;;;;4995129;28;20233;-67
2023/08/23 05:28:30;;;;;;;6.20;5.28;;;;;;;;;;4994722;28;20231;-66
2023/08/23 05:30:56;;;;;;;7.20;5.30;;;;;;;;;;4995025;28;20203;-66
2023/08/23 05:33:22;;;;;;;5.75;5.28;;;;;;;;;;4994991;28;20199;-67
2023/08/23 05:35:48;;;;;;;5.32;4.88;;;;;;;;;;4994895;28;20214;-67
2023/08/23 05:38:15;;;;;;;8.52;5.30;;;;;;;;;;4994242;28;20234;-67
2023/08/23 05:40:44;;;;;;;7.82;5.18;;;;;;;;;;4994653;28;20207;-67
2023/08/23 05:43:10;;;;;;;6.40;5.60;;;;;;;;;;4994929;28;20207;-66
2023/08/23 05:45:36;;;;;;;9.80;5.72;;;;;;;;;;4994654;28;20203;-67
2023/08/23 05:48:02;;;;;;;5.80;5.30;;;;;;;;;;4994521;28;20226;-67
2023/08/23 05:50:29;;;;;;;6.68;6.00;;;;;;;;;;4994538;28;20747;-67
2023/08/23 05:52:55;;;;;;;7.38;5.13;;;;;;;;;;4990362;28;20698;-68
2023/08/23 05:55:21;;;;;;;10.38;5.93;;;;;;;;;;4982024;28;20605;-66
2023/08/23 05:57:49;;;;;;;5.97;5.40;;;;;;;;;;4988112;28;20745;-65
2023/08/23 06:00:16;;;;;;;6.07;5.07;;;;;;;;;;4988199;28;20325;-66
2023/08/23 06:02:43;;;;;;;7.18;5.43;;;;;;;;;;4988879;28;20476;-66
2023/08/23 06:05:10;;;;;;;6.88;5.60;;;;;;;;;;4988697;28;20264;-68
2023/08/23 06:07:37;;;;;;;7.32;5.55;;;;;;;;;;4984678;28;20210;-66
2023/08/23 06:10:03;;;;;;;12.45;6.35;;;;;;;;;;4984967;28;20217;-66
2023/08/23 06:12:29;;;;;;;7.30;6.63;;;;;;;;;;4970151;28;20211;-65
2023/08/23 06:14:57;;;;;;;7.53;5.78;;;;;;;;;;4966555;28;20248;-66
2023/08/23 06:17:25;;;;;;;6.32;5.72;;;;;;;;;;4968239;28;20222;-67
2023/08/23 06:19:51;;;;;;;13.20;7.05;;;;;;;;;;4967579;28;20223;-66
2023/08/23 06:22:18;;;;;;;6.28;5.72;;;;;;;;;;4967614;28;20215;-67
2023/08/23 06:24:44;;;;;;;7.63;6.90;;;;;;;;;;4967847;28;20298;-67
2023/08/23 06:27:10;;;;;;;11.38;6.90;;;;;;;;;;4967508;28;20322;-66
2023/08/23 06:29:39;;;;;;;9.23;6.80;;;;;;;;;;4966544;28;20578;-66
2023/08/23 06:32:06;;;;;;;8.85;6.95;;;;;;;;;;4966940;28;20688;-66
2023/08/23 06:34:33;;;;;;;9.63;6.95;;;;;;;;;;4967492;28;20258;-67
2023/08/23 06:36:59;;;;;;;11.27;6.50;;;;;;;;;;4976605;28;20221;-66
2023/08/23 06:39:26;;;;;;;9.27;6.43;;;;;;;;;;4986765;28;20237;-67
2023/08/23 06:41:52;;;;;;;13.00;7.20;;;;;;;;;;4987150;28;20217;-66
2023/08/23 06:44:18;;;;;;;10.25;6.88;;;;;;;;;;4986976;28;20679;-65
2023/08/23 06:46:44;;;;;;;8.52;6.50;;;;;;;;;;4987230;28;20214;-65
2023/08/23 06:49:12;;;;;;;7.60;6.80;;;;;;;;;;4969973;28;20219;-65
2023/08/23 06:51:38;;;;;;;7.40;6.47;;;;;;;;;;4966793;28;20242;-65
2023/08/23 06:54:05;;;;;;;8.50;6.22;;;;;;;;;;4967546;28;20617;-65
2023/08/23 06:56:31;;;;;;;10.48;6.88;;;;;;;;;;4966561;28;20217;-65
2023/08/23 06:58:57;;;;;;;8.20;6.68;;;;;;;;;;4967291;28;20239;-66
2023/08/23 07:01:23;;;;;;;9.07;6.28;;;;;;;;;;4966630;28;20254;-66
2023/08/23 07:03:50;;;;;;;7.47;6.13;;;;;;;;;;4966176;28;20661;-66
2023/08/23 07:06:19;;;;;;;7.90;6.18;;;;;;;;;;4966887;28;20227;-66
2023/08/23 07:08:45;;;;;;;10.13;6.97;;;;;;;;;;4966640;28;20230;-66
2023/08/23 07:11:11;;;;;;;8.13;6.75;;;;;;;;;;4966889;28;20211;-66
2023/08/23 07:13:38;;;;;;;7.07;6.38;;;;;;;;;;4966531;28;20684;-66
2023/08/23 07:16:04;;;;;;;9.73;6.15;;;;;;;;;;4966351;28;20566;-66
2023/08/23 07:18:31;;;;;;;7.05;6.00;;;;;;;;;;4966102;28;20750;-65
2023/08/23 07:20:57;;;;;;;7.30;4.90;;;;;;;;;;4966429;28;20214;-66
2023/08/23 07:23:25;;;;;;;7.93;6.20;;;;;;;;;;4967095;28;20690;-66
2023/08/23 07:25:51;;;;;;;10.43;5.80;;;;;;;;;;4966686;28;20595;-66
2023/08/23 07:28:18;;;;;;;10.18;6.75;;;;;;;;;;4978039;28;20223;-66
2023/08/23 07:30:47;;;;;;;8.45;5.82;;;;;;;;;;4968263;28;20222;-67
2023/08/23 07:33:13;;;;;;;6.97;6.35;;;;;;;;;;4966519;28;20219;-66
2023/08/23 07:35:39;;;;;;;9.10;6.70;;;;;;;;;;4966093;28;20567;-65
2023/08/23 07:38:06;;;;;;;10.75;5.80;;;;;;;;;;4965758;28;20235;-65
2023/08/23 07:40:35;;;;;;;8.57;5.78;;;;;;;;;;4966399;28;20567;-65
2023/08/23 07:43:01;;;;;;;9.77;6.22;;;;;;;;;;4966004;28;20210;-65
2023/08/23 07:45:28;;;;;;;8.23;6.32;;;;;;;;;;4965997;28;20221;-65
2023/08/23 07:47:54;;;;;;;8.23;6.13;;;;;;;;;;4972242;28;20226;-66
2023/08/23 07:50:20;;;;;;;6.75;5.47;;;;;;;;;;4978052;28;20215;-65
2023/08/23 07:52:46;;;;;;;7.43;5.97;;;;;;;;;;4966146;28;20700;-66
2023/08/23 07:55:13;;;;;;;11.70;6.57;;;;;;;;;;4966472;28;20265;-65
2023/08/23 07:57:40;;;;;;;11.45;6.43;;;;;;;;;;4975012;28;20202;-66
2023/08/23 08:00:09;;;;;;;11.40;6.15;;;;;;;;;;4984858;28;20317;-66
2023/08/23 08:02:35;;;;;;;9.30;6.20;;;;;;;;;;4985097;28;20296;-66
2023/08/23 08:05:02;;;;;;;6.45;5.53;;;;;;;;;;4984967;28;20221;-66
2023/08/23 08:07:29;;;;;;;7.78;5.95;;;;;;;;;;4984994;28;20238;-66
2023/08/23 08:09:55;;;;;;;6.93;6.25;;;;;;;;;;4981943;28;20231;-66
2023/08/23 08:12:22;;;;;;;6.40;5.72;;;;;;;;;;4985257;28;20263;-66
2023/08/23 08:14:49;;;;;;;11.48;6.32;;;;;;;;;;4985919;28;20272;-67
2023/08/23 08:17:15;;;;;;;8.85;5.80;;;;;;;;;;4985831;28;20207;-66
2023/08/23 08:19:42;;;;;;;6.65;5.90;;;;;;;;;;4984549;28;20693;-64
2023/08/23 08:22:08;;;;;;;12.10;5.90;;;;;;;;;;4985266;28;20227;-65
2023/08/23 08:24:34;;;;;;;10.20;6.07;;;;;;;;;;4985700;28;20213;-65
2023/08/23 08:27:02;;;;;;;11.43;6.43;;;;;;;;;;4970765;28;20215;-65
2023/08/23 08:29:28;;;;;;;10.45;6.40;;;;;;;;;;4965697;28;20231;-64
2023/08/23 08:31:56;;;;;;;5.93;5.18;;;;;;;;;;4965312;28;20218;-66
2023/08/23 08:34:22;;;;;;;8.18;5.80;;;;;;;;;;4965655;28;20318;-64
2023/08/23 08:36:48;;;;;;;11.05;5.85;;;;;;;;;;4965622;28;20665;-65
2023/08/23 08:39:14;;;;;;;11.48;5.30;;;;;;;;;;4965768;28;20235;-66
2023/08/23 08:41:44;;;;;;;7.22;5.70;;;;;;;;;;4966996;28;20215;-65
2023/08/23 08:44:12;;;;;;;9.77;5.80;;;;;;;;;;4966465;28;20211;-65
2023/08/23 08:46:39;;;;;;;9.05;5.70;;;;;;;;;;4969588;28;20690;-63
2023/08/23 08:49:07;;;;;;;8.85;5.68;;;;;;;;;;4969208;28;20613;-64
2023/08/23 08:51:36;;;;;;;6.03;5.43;;;;;;;;;;4965531;28;20762;-65
2023/08/23 08:54:02;;;;;;;7.18;5.38;;;;;;;;;;4967604;28;20483;-65
2023/08/23 08:56:29;;;;;;;12.60;5.50;;;;;;;;;;4969835;28;20207;-65
2023/08/23 08:58:55;;;;;;;8.18;5.35;;;;;;;;;;4968953;28;20231;-65
2023/08/23 09:01:22;;;;;;;6.93;5.70;;;;;;;;;;4969650;28;20226;-66
2023/08/23 09:03:49;;;;;;;9.50;5.28;;;;;;;;;;4983298;28;20211;-65
2023/08/23 09:06:17;;;;;;;9.45;5.47;;;;;;;;;;4984455;28;20298;-64
2023/08/23 09:08:43;;;;;;;6.57;4.85;;;;;;;;;;4976272;28;20222;-65
2023/08/23 09:11:09;;;;;;;6.00;5.25;;;;;;;;;;4980294;28;20207;-64
2023/08/23 09:13:36;;;;;;;8.52;5.07;;;;;;;;;;4969747;28;20219;-66
2023/08/23 09:16:03;;;;;;;11.55;5.32;;;;;;;;;;4969129;28;20302;-65
2023/08/23 09:18:29;;;;;;;6.65;4.93;;;;;;;;;;4968715;28;20322;-65
2023/08/23 09:20:56;;;;;;;6.82;4.80;;;;;;;;;;4969194;28;20903;-66
2023/08/23 09:23:24;;;;;;;5.90;4.82;;;;;;;;;;4968430;28;20222;-66
2023/08/23 09:25:50;;;;;;;7.50;5.35;;;;;;;;;;4968941;28;20211;-65
2023/08/23 09:28:16;;;;;;;7.85;4.28;;;;;;;;;;4981707;28;20722;-68
2023/08/23 09:30:47;;;;;;;8.00;5.10;;;;;;;;;;4968152;28;20207;-67
2023/08/23 09:33:13;;;;;;;8.20;5.00;;;;;;;;;;4968428;28;20239;-66
2023/08/23 09:35:47;;;;;;;4.70;4.25;;;;;;;;;;4968454;28;20211;-67
2023/08/23 09:38:18;;;;;;;5.57;4.82;;;;;;;;;;4972162;28;20241;-66
2023/08/23 09:40:46;;;;;;;6.95;4.95;;;;;;;;;;4987212;28;20226;-66
2023/08/23 09:43:13;;;;;;;5.70;4.55;;;;;;;;;;4987097;28;20218;-67
2023/08/23 09:45:40;;;;;;;10.45;4.38;;;;;;;;;;4987772;28;20237;-66
2023/08/23 09:48:06;;;;;;;5.53;4.35;;;;;;;;;;4972239;28;20230;-66
2023/08/23 09:50:33;;;;;;;6.55;4.50;;;;;;;;;;4967590;28;20207;-66
2023/08/23 09:53:01;;;;;;;4.82;4.40;;;;;;;;;;4968043;28;20346;-65
2023/08/23 09:55:27;;;;;;;5.90;5.07;;;;;;;;;;4966469;28;20529;-72
2023/08/23 09:57:55;;;;;;;8.32;4.22;;;;;;;;;;4967397;28;20231;-72
2023/08/23 10:00:22;;;;;;;5.60;5.18;;;;;;;;;;4971035;28;20230;-72
2023/08/23 10:02:48;;;;;;;6.63;5.43;;;;;;;;;;4985643;28;20455;-72
2023/08/23 10:05:14;;;;;;;5.20;4.45;;;;;;;;;;4985364;28;20221;-72
2023/08/23 10:07:41;;;;;;;8.57;4.78;;;;;;;;;;4985204;28;20232;-72
2023/08/23 10:10:08;;;;;;;7.07;4.40;;;;;;;;;;4985468;28;20308;-73
2023/08/23 10:12:35;;;;;;;4.90;4.40;;;;;;;;;;4986037;28;20217;-73
2023/08/23 10:15:03;;;;;;;11.45;4.60;;;;;;;;;;4985404;28;20218;-72
2023/08/23 10:17:30;;;;;;;5.05;4.65;;;;;;;;;;4985055;28;20635;-72
2023/08/23 10:19:57;;;;;;;8.55;4.40;;;;;;;;;;4984952;28;20245;-72
2023/08/23 10:22:24;;;;;;;10.85;4.60;;;;;;;;;;4985502;28;20214;-72
2023/08/23 10:24:50;;;;;;;4.60;4.30;;;;;;;;;;4985465;28;20222;-72
2023/08/23 10:27:18;;;;;;;4.93;4.20;;;;;;;;;;4984791;28;20651;-72
2023/08/23 10:29:49;;;;;;;12.20;5.00;;;;;;;;;;4984517;28;20234;-72
2023/08/23 10:32:17;;;;;;;8.82;4.93;;;;;;;;;;4985298;28;20214;-72
2023/08/23 10:34:43;;;;;;;7.65;4.20;;;;;;;;;;4984738;28;20211;-72
2023/08/23 10:37:13;;;;;;;6.20;4.65;;;;;;;;;;4984537;28;20210;-72
2023/08/23 10:39:39;;;;;;;9.63;4.93;;;;;;;;;;4984708;28;20237;-72
2023/08/23 10:42:06;;;;;;;5.28;4.18;;;;;;;;;;4985471;28;20214;-72
2023/08/23 10:44:32;;;;;;;7.05;4.07;;;;;;;;;;4984706;28;20614;-72
2023/08/23 10:46:58;;;;;;;4.50;4.10;;;;;;;;;;4984590;28;20410;-72
2023/08/23 10:49:26;;;;;;;6.47;4.47;;;;;;;;;;4966499;28;20251;-72
2023/08/23 10:51:53;;;;;;;7.25;4.60;;;;;;;;;;4965018;28;20223;-72
2023/08/23 10:54:19;;;;;;;10.82;4.65;;;;;;;;;;4966653;28;20211;-72
2023/08/23 10:56:47;;;;;;;5.68;4.43;;;;;;;;;;4984794;28;20217;-72
2023/08/23 10:59:13;;;;;;;5.35;4.43;;;;;;;;;;4984158;28;20238;-73
2023/08/23 11:01:40;;;;;;;6.65;4.10;;;;;;;;;;4984493;28;20214;-72
2023/08/23 11:04:06;;;;;;;8.48;4.40;;;;;;;;;;4984353;28;20239;-72
2023/08/23 11:06:34;;;;;;;6.00;3.92;;;;;;;;;;4984004;28;20210;-72
2023/08/23 11:09:00;;;;;;;9.63;3.85;;;;;;;;;;4965459;28;20674;-72
2023/08/23 11:11:29;;;;;;;7.85;4.10;;;;;;;;;;4964584;28;20212;-73
2023/08/23 11:13:56;;;;;;;7.03;4.00;;;;;;;;;;4965117;28;20207;-71
2023/08/23 11:16:22;;;;;;;4.32;3.92;;;;;;;;;;4963987;28;20606;-71
2023/08/23 11:18:48;;;;;;;4.43;3.50;;;;;;;;;;4970166;28;20234;-72
2023/08/23 11:21:15;;;;;;;4.63;3.65;;;;;;;;;;4984016;28;20235;-73
2023/08/23 11:23:42;;;;;;;7.75;3.60;;;;;;;;;;4983758;28;20210;-71
2023/08/23 11:26:08;;;;;;;8.20;4.07;;;;;;;;;;4984218;28;20211;-71
2023/08/23 11:28:35;;;;;;;4.13;3.67;;;;;;;;;;4983688;28;20703;-72
2023/08/23 11:31:06;;;;;;;3.20;3.10;;;;;;;;;;4983681;28;20210;-71
2023/08/23 11:33:32;;;;;;;5.55;3.30;;;;;;;;;;4984199;28;20640;-72
2023/08/23 11:35:59;;;;;;;5.43;4.00;;;;;;;;;;4972095;28;20211;-72
2023/08/23 11:38:28;;;;;;;8.68;3.40;;;;;;;;;;4963570;28;20736;-72
2023/08/23 11:40:57;;;;;;;3.42;3.05;;;;;;;;;;4964752;28;20350;-71
2023/08/23 11:43:26;;;;;;;3.55;3.20;;;;;;;;;;4964691;28;21273;-73
2023/08/23 11:45:53;;;;;;;4.10;3.38;;;;;;;;;;4964788;28;20219;-72
2023/08/23 11:48:19;;;;;;;8.45;3.13;;;;;;;;;;4973479;28;20718;-72
2023/08/23 11:50:46;;;;;;;3.30;3.00;;;;;;;;;;4977466;28;20213;-73
2023/08/23 11:53:12;;;;;;;5.07;3.10;;;;;;;;;;4983791;28;20214;-71
2023/08/23 11:55:40;;;;;;;3.60;3.22;;;;;;;;;;4983389;28;20219;-71
2023/08/23 11:58:09;;;;;;;5.05;3.00;;;;;;;;;;4983058;28;20222;-72
2023/08/23 12:00:35;;;;;;;3.30;3.00;;;;;;;;;;4964292;28;20320;-72
2023/08/23 12:03:02;;;;;;;4.75;3.10;;;;;;;;;;4963845;28;20230;-71
2023/08/23 12:05:28;;;;;;;6.00;3.65;;;;;;;;;;4963822;28;20222;-72
2023/08/23 12:07:54;;;;;;;6.80;4.28;;;;;;;;;;4963702;28;20223;-72
2023/08/23 12:10:21;;;;;;;6.43;3.50;;;;;;;;;;4963093;28;20207;-73
2023/08/23 12:12:47;;;;;;;4.78;3.67;;;;;;;;;;4964244;28;20262;-71
2023/08/23 12:15:15;;;;;;;3.45;3.25;;;;;;;;;;4964261;28;20222;-72
2023/08/23 12:17:41;;;;;;;6.30;3.63;;;;;;;;;;4963671;28;20710;-72
2023/08/23 12:20:11;;;;;;;6.95;3.78;;;;;;;;;;4963530;28;20620;-73
2023/08/23 12:22:37;;;;;;;4.53;3.35;;;;;;;;;;4963680;28;20227;-73
2023/08/23 12:25:04;;;;;;;7.93;3.40;;;;;;;;;;4963902;28;20233;-73
2023/08/23 12:27:30;;;;;;;8.13;3.55;;;;;;;;;;4963926;28;20211;-72
2023/08/23 12:29:56;;;;;;;5.00;3.50;;;;;;;;;;4965761;28;21729;-73
2023/08/23 12:32:24;;;;;;;8.05;3.50;;;;;;;;;;4967388;28;20233;-72
2023/08/23 12:34:50;;;;;;;8.98;3.97;;;;;;;;;;4967669;28;20302;-72
2023/08/23 12:37:16;;;;;;;5.60;3.30;;;;;;;;;;4967281;28;20566;-72
2023/08/23 12:39:43;;;;;;;4.38;3.28;;;;;;;;;;4973643;28;20237;-72
2023/08/23 12:42:09;;;;;;;5.75;3.45;;;;;;;;;;4987078;28;20222;-72
2023/08/23 12:44:35;;;;;;;4.72;3.72;;;;;;;;;;4987362;28;20214;-72
2023/08/23 12:47:02;;;;;;;8.35;4.15;;;;;;;;;;4987148;28;20626;-71
2023/08/23 12:49:29;;;;;;;5.82;3.50;;;;;;;;;;4968034;28;20231;-73
2023/08/23 12:51:55;;;;;;;6.35;3.60;;;;;;;;;;4966921;28;20219;-73
2023/08/23 12:54:22;;;;;;;3.83;3.47;;;;;;;;;;4967151;28;20215;-72
2023/08/23 12:56:49;;;;;;;4.07;3.40;;;;;;;;;;4967830;28;20262;-72
2023/08/23 12:59:15;;;;;;;4.63;3.40;;;;;;;;;;4970325;28;20917;-72
2023/08/23 13:01:41;;;;;;;6.22;3.45;;;;;;;;;;4986919;28;20234;-72
2023/08/23 13:04:07;;;;;;;3.80;3.22;;;;;;;;;;4985967;28;20210;-72
2023/08/23 13:06:35;;;;;;;7.22;3.42;;;;;;;;;;4980626;28;20215;-72
2023/08/23 13:09:02;;;;;;;3.45;3.15;;;;;;;;;;4966629;28;20255;-72
2023/08/23 13:11:29;;;;;;;4.78;3.17;;;;;;;;;;4967195;28;20207;-72
2023/08/23 13:13:55;;;;;;;7.70;3.45;;;;;;;;;;4966629;28;20215;-72
2023/08/23 13:16:21;;;;;;;3.45;3.25;;;;;;;;;;4968618;28;20211;-72
2023/08/23 13:18:47;;;;;;;9.05;3.03;;;;;;;;;;4969009;28;20223;-72
2023/08/23 13:21:14;;;;;;;4.43;3.33;;;;;;;;;;4971462;28;20747;-72
2023/08/23 13:23:41;;;;;;;3.53;3.08;;;;;;;;;;4967209;28;20320;-71
2023/08/23 13:26:08;;;;;;;3.20;2.95;;;;;;;;;;4966718;28;20207;-71
2023/08/23 13:28:34;;;;;;;5.03;3.00;;;;;;;;;;4966048;28;20271;-72
2023/08/23 13:31:00;;;;;;;3.70;3.00;;;;;;;;;;4966789;28;20207;-70
2023/08/23 13:33:27;;;;;;;3.45;3.22;;;;;;;;;;4966738;28;20218;-70
2023/08/23 13:35:53;;;;;;;6.43;3.28;;;;;;;;;;4975585;28;20925;-74
2023/08/23 13:38:20;;;;;;;3.83;2.95;;;;;;;;;;4985856;28;20238;-72
2023/08/23 13:40:48;;;;;;;4.35;3.33;;;;;;;;;;4971216;28;20237;-71
2023/08/23 13:43:14;;;;;;;4.75;2.97;;;;;;;;;;4970168;28;20211;-73
2023/08/23 13:45:43;;;;;;;7.88;3.20;;;;;;;;;;4980998;28;20284;-71
2023/08/23 13:48:09;;;;;;;5.47;3.40;;;;;;;;;;4978579;28;20307;-71
2023/08/23 13:50:35;;;;;;;7.93;3.28;;;;;;;;;;4980244;28;20586;-72
2023/08/23 13:53:01;;;;;;;3.25;2.88;;;;;;;;;;4987580;28;20226;-73
2023/08/23 13:55:28;;;;;;;3.08;2.83;;;;;;;;;;4987064;28;20207;-72
2023/08/23 13:57:55;;;;;;;4.22;3.15;;;;;;;;;;4977985;28;20595;-74
2023/08/23 14:00:22;;;;;;;4.03;3.20;;;;;;;;;;4967763;28;20231;-72
2023/08/23 14:02:48;;;;;;;3.55;2.83;;;;;;;;;;4967975;28;20215;-73
2023/08/23 14:05:14;;;;;;;12.40;3.67;;;;;;;;;;4968287;28;20222;-72
2023/08/23 14:07:40;;;;;;;5.68;3.10;;;;;;;;;;4967575;28;20758;-73
2023/08/23 14:10:07;;;;;;;4.43;3.08;;;;;;;;;;4967645;28;20211;-74
2023/08/23 14:12:33;;;;;;;5.55;2.88;;;;;;;;;;4984431;28;20217;-73
2023/08/23 14:15:01;;;;;;;5.22;3.05;;;;;;;;;;4986739;28;20210;-74
2023/08/23 14:17:28;;;;;;;3.35;3.00;;;;;;;;;;4987091;28;20225;-74
2023/08/23 14:19:54;;;;;;;4.20;2.90;;;;;;;;;;4982265;28;20215;-73
2023/08/23 14:22:21;;;;;;;5.32;3.70;;;;;;;;;;4967593;28;20203;-73
2023/08/23 14:24:47;;;;;;;3.83;3.00;;;;;;;;;;4981849;28;20687;-73
2023/08/23 14:27:14;;;;;;;4.22;3.15;;;;;;;;;;4974806;28;20221;-73
2023/08/23 14:29:41;;;;;;;5.60;3.05;;;;;;;;;;4976561;28;20340;-73
2023/08/23 14:32:10;;;;;;;3.13;2.90;;;;;;;;;;4967842;28;20211;-73
2023/08/23 14:34:36;;;;;;;4.30;2.83;;;;;;;;;;4968093;28;20220;-73
2023/08/23 14:37:03;;;;;;;3.30;3.10;;;;;;;;;;4966817;28;20211;-73